CPA785 VHHH-WADD
Flight info
| Callsign | CPA785 |
|---|---|
| Flight time | N/A |
| Altitude | 35000 |
| Route | DALOL V652 UNTUL/N0492F360 V652 SABNO/N0495F350 A583 AKOTA/N0491F360 M754 VINIK M522 ELANG/N0491F370 M522 DOBMA |
| Aircraft | B77W/H-SDE1E2E3FGHIJ2J3J4J5M1RWXY/LB1D1 |
Departure
| Time | N/A |
|---|---|
| Airport | Hong Kong International Airport (VHHH) |
Arrival
| Time | 2026-05-06 06:04 |
|---|---|
| Airport | Denpasar I Gusti Ngurah Rai International Airport (WADD) |
| Time | Latitude | Longitude | Altitude | Speed | Heading |
|---|---|---|---|---|---|
| 2026-05-06 01:47 | 21.90927 | 114.39438 | 20794 ft | 350 kts | 146° |
| 2026-05-06 01:47 | 21.89623 | 114.40464 | 21176 ft | 351 kts | 146° |
| 2026-05-06 01:47 | 21.87642 | 114.42022 | 21733 ft | 355 kts | 146° |
| 2026-05-06 01:47 | 21.85700 | 114.43678 | 22229 ft | 359 kts | 134° |
| 2026-05-06 01:48 | 21.84316 | 114.45939 | 22622 ft | 368 kts | 110° |
| 2026-05-06 01:48 | 21.83576 | 114.48565 | 23145 ft | 369 kts | 105° |
| 2026-05-06 01:48 | 21.82911 | 114.51245 | 23687 ft | 372 kts | 104° |
| 2026-05-06 01:48 | 21.82249 | 114.53959 | 24191 ft | 375 kts | 104° |
| 2026-05-06 01:49 | 21.81576 | 114.56682 | 24688 ft | 378 kts | 105° |
| 2026-05-06 01:49 | 21.80890 | 114.59420 | 25208 ft | 380 kts | 105° |
| 2026-05-06 01:49 | 21.80190 | 114.62175 | 25713 ft | 383 kts | 105° |
| 2026-05-06 01:49 | 21.79489 | 114.64910 | 26201 ft | 386 kts | 105° |
| 2026-05-06 01:50 | 21.78769 | 114.67706 | 26685 ft | 389 kts | 105° |
| 2026-05-06 01:50 | 21.78041 | 114.70523 | 27209 ft | 392 kts | 105° |
| 2026-05-06 01:50 | 21.77310 | 114.73354 | 27761 ft | 394 kts | 105° |
| 2026-05-06 01:50 | 21.76572 | 114.76210 | 28243 ft | 397 kts | 105° |
| 2026-05-06 01:51 | 21.75828 | 114.79086 | 28722 ft | 401 kts | 105° |
| 2026-05-06 01:51 | 21.75077 | 114.81982 | 29276 ft | 403 kts | 105° |
| 2026-05-06 01:51 | 21.74193 | 114.84860 | 29660 ft | 407 kts | 117° |
| 2026-05-06 01:51 | 21.72640 | 114.87398 | 29973 ft | 409 kts | 129° |
| 2026-05-06 01:52 | 21.70848 | 114.89795 | 30388 ft | 412 kts | 130° |
| 2026-05-06 01:52 | 21.69042 | 114.92202 | 30805 ft | 415 kts | 129° |
| 2026-05-06 01:52 | 21.67250 | 114.94650 | 31207 ft | 418 kts | 129° |
| 2026-05-06 01:52 | 21.65468 | 114.97139 | 31582 ft | 421 kts | 128° |
| 2026-05-06 01:53 | 21.63684 | 114.99649 | 31929 ft | 425 kts | 128° |
| 2026-05-06 01:53 | 21.61885 | 115.02186 | 32267 ft | 429 kts | 128° |
| 2026-05-06 01:53 | 21.60067 | 115.04746 | 32598 ft | 432 kts | 128° |
| 2026-05-06 01:53 | 21.58233 | 115.07327 | 32925 ft | 436 kts | 128° |
| 2026-05-06 01:54 | 21.56384 | 115.09925 | 33235 ft | 439 kts | 129° |
| 2026-05-06 01:54 | 21.54462 | 115.12487 | 33515 ft | 442 kts | 134° |
| 2026-05-06 01:54 | 21.52286 | 115.14822 | 33825 ft | 444 kts | 140° |
| 2026-05-06 01:54 | 21.49897 | 115.16928 | 34101 ft | 445 kts | 147° |
| 2026-05-06 01:55 | 21.47379 | 115.18800 | 34350 ft | 447 kts | 148° |
| 2026-05-06 01:55 | 21.44759 | 115.20690 | 34615 ft | 449 kts | 149° |
| 2026-05-06 01:55 | 21.42192 | 115.22537 | 34872 ft | 452 kts | 149° |
| 2026-05-06 01:55 | 21.39557 | 115.24443 | 34947 ft | 459 kts | 148° |
| 2026-05-06 01:56 | 21.34280 | 115.28306 | 34976 ft | 457 kts | 148° |
| 2026-05-06 01:56 | 21.29074 | 115.32137 | 34978 ft | 451 kts | 148° |
| 2026-05-06 01:57 | 21.23882 | 115.35944 | 34998 ft | 454 kts | 148° |
| 2026-05-06 01:57 | 21.18647 | 115.39762 | 35000 ft | 455 kts | 148° |
| 2026-05-06 01:58 | 21.13407 | 115.43580 | 34988 ft | 455 kts | 148° |
| 2026-05-06 01:58 | 21.08169 | 115.47396 | 34988 ft | 455 kts | 148° |
| 2026-05-06 01:59 | 21.02976 | 115.51176 | 34982 ft | 454 kts | 148° |
| 2026-05-06 01:59 | 20.97755 | 115.54974 | 34985 ft | 453 kts | 149° |
| 2026-05-06 02:00 | 20.92539 | 115.58765 | 34979 ft | 453 kts | 149° |
| 2026-05-06 02:00 | 20.87325 | 115.62551 | 34980 ft | 453 kts | 149° |
| 2026-05-06 02:01 | 20.82099 | 115.66344 | 34979 ft | 454 kts | 149° |
| 2026-05-06 02:01 | 20.76864 | 115.70138 | 34986 ft | 455 kts | 149° |
| 2026-05-06 02:02 | 20.71614 | 115.73933 | 34976 ft | 456 kts | 149° |
| 2026-05-06 02:02 | 20.66368 | 115.77722 | 34986 ft | 455 kts | 149° |
| 2026-05-06 02:03 | 20.61122 | 115.81510 | 34989 ft | 455 kts | 149° |
| 2026-05-06 02:03 | 20.55883 | 115.85290 | 34969 ft | 454 kts | 149° |
| 2026-05-06 02:04 | 20.50681 | 115.89040 | 34972 ft | 453 kts | 149° |
| 2026-05-06 02:04 | 20.45431 | 115.92822 | 34973 ft | 452 kts | 149° |
| 2026-05-06 02:05 | 20.40251 | 115.96551 | 34985 ft | 452 kts | 149° |
| 2026-05-06 02:05 | 20.35019 | 116.00281 | 34961 ft | 450 kts | 154° |
| 2026-05-06 02:06 | 20.32184 | 116.01600 | 34983 ft | 442 kts | 169° |
| 2026-05-06 02:06 | 20.29177 | 116.02189 | 34979 ft | 438 kts | 181° |
| 2026-05-06 02:06 | 20.26161 | 116.02093 | 34960 ft | 430 kts | 192° |
| 2026-05-06 02:06 | 20.23184 | 116.01664 | 34982 ft | 432 kts | 192° |
| 2026-05-06 02:07 | 20.17232 | 116.00766 | 34970 ft | 432 kts | 192° |
| 2026-05-06 02:07 | 20.11283 | 115.99902 | 34971 ft | 431 kts | 192° |
| 2026-05-06 02:08 | 20.05339 | 115.99073 | 34968 ft | 430 kts | 191° |
| 2026-05-06 02:08 | 19.99440 | 115.98262 | 34969 ft | 431 kts | 191° |
| 2026-05-06 02:09 | 19.93473 | 115.97444 | 34969 ft | 432 kts | 191° |
| 2026-05-06 02:09 | 19.87496 | 115.96626 | 34970 ft | 434 kts | 191° |
| 2026-05-06 02:10 | 19.81495 | 115.95804 | 34963 ft | 435 kts | 191° |
| 2026-05-06 02:10 | 19.75490 | 115.94983 | 34968 ft | 435 kts | 191° |
| 2026-05-06 02:11 | 19.69525 | 115.94167 | 34963 ft | 434 kts | 191° |
| 2026-05-06 02:11 | 19.63540 | 115.93350 | 34958 ft | 433 kts | 191° |
| 2026-05-06 02:12 | 19.57575 | 115.92536 | 34959 ft | 432 kts | 191° |
| 2026-05-06 02:12 | 19.51621 | 115.91723 | 34962 ft | 431 kts | 191° |
| 2026-05-06 02:13 | 19.45650 | 115.90908 | 34969 ft | 433 kts | 191° |
| 2026-05-06 02:13 | 19.39668 | 115.90093 | 34964 ft | 434 kts | 191° |
| 2026-05-06 02:14 | 19.33664 | 115.89276 | 34959 ft | 435 kts | 191° |
| 2026-05-06 02:14 | 19.27655 | 115.88458 | 34957 ft | 435 kts | 191° |
| 2026-05-06 02:15 | 19.21689 | 115.87648 | 34953 ft | 435 kts | 191° |
| 2026-05-06 02:15 | 19.15694 | 115.86833 | 34956 ft | 434 kts | 191° |
| 2026-05-06 02:16 | 19.09697 | 115.86019 | 34949 ft | 433 kts | 191° |
| 2026-05-06 02:16 | 19.03730 | 115.85210 | 34953 ft | 432 kts | 191° |
| 2026-05-06 02:17 | 18.97707 | 115.85386 | 34956 ft | 442 kts | 169° |
| 2026-05-06 02:17 | 18.94762 | 115.86398 | 34961 ft | 448 kts | 157° |
| 2026-05-06 02:17 | 18.92001 | 115.87851 | 34967 ft | 450 kts | 155° |
| 2026-05-06 02:18 | 18.86462 | 115.90977 | 34958 ft | 453 kts | 154° |
| 2026-05-06 02:18 | 18.80894 | 115.94116 | 34953 ft | 454 kts | 155° |
| 2026-05-06 02:19 | 18.75297 | 115.97210 | 34944 ft | 454 kts | 155° |
| 2026-05-06 02:19 | 18.69703 | 116.00271 | 34939 ft | 452 kts | 155° |
| 2026-05-06 02:20 | 18.61364 | 116.04822 | 34939 ft | 448 kts | 155° |
| 2026-05-06 02:21 | 18.55868 | 116.07821 | 34943 ft | 447 kts | 155° |
| 2026-05-06 02:21 | 18.50342 | 116.10834 | 34945 ft | 448 kts | 155° |
| 2026-05-06 02:22 | 18.44795 | 116.13856 | 34945 ft | 449 kts | 155° |
| 2026-05-06 02:22 | 18.39239 | 116.16882 | 34942 ft | 450 kts | 155° |
| 2026-05-06 02:23 | 18.33674 | 116.19910 | 34941 ft | 450 kts | 155° |
| 2026-05-06 02:23 | 18.28114 | 116.22934 | 34941 ft | 449 kts | 155° |
| 2026-05-06 02:24 | 18.22572 | 116.25946 | 34935 ft | 448 kts | 155° |
| 2026-05-06 02:24 | 18.17039 | 116.28950 | 34938 ft | 447 kts | 155° |
| 2026-05-06 02:25 | 18.11550 | 116.31929 | 34937 ft | 446 kts | 155° |
| 2026-05-06 02:25 | 18.06035 | 116.34919 | 34943 ft | 447 kts | 155° |
| 2026-05-06 02:26 | 18.00508 | 116.37914 | 34940 ft | 447 kts | 155° |
| 2026-05-06 02:26 | 17.94965 | 116.40916 | 34941 ft | 448 kts | 155° |
| 2026-05-06 02:27 | 17.89419 | 116.43917 | 34940 ft | 449 kts | 155° |
| 2026-05-06 02:27 | 17.83866 | 116.46920 | 34936 ft | 448 kts | 155° |
| 2026-05-06 02:28 | 17.78352 | 116.49900 | 34936 ft | 448 kts | 155° |
| 2026-05-06 02:28 | 17.72816 | 116.52888 | 34934 ft | 447 kts | 155° |
| 2026-05-06 02:29 | 17.67290 | 116.55868 | 34936 ft | 446 kts | 155° |
| 2026-05-06 02:29 | 17.61774 | 116.58841 | 34934 ft | 445 kts | 155° |
| 2026-05-06 02:30 | 17.56268 | 116.61808 | 34937 ft | 445 kts | 155° |
| 2026-05-06 02:30 | 17.50754 | 116.64776 | 34942 ft | 446 kts | 155° |
| 2026-05-06 02:31 | 17.45259 | 116.67732 | 34943 ft | 447 kts | 155° |
| 2026-05-06 02:31 | 17.39723 | 116.70709 | 34940 ft | 448 kts | 155° |
| 2026-05-06 02:32 | 17.34176 | 116.73690 | 34934 ft | 448 kts | 155° |
| 2026-05-06 02:32 | 17.28636 | 116.76665 | 34939 ft | 447 kts | 155° |
| 2026-05-06 02:33 | 17.23141 | 116.79614 | 34937 ft | 445 kts | 155° |
| 2026-05-06 02:33 | 17.21282 | 116.80611 | 34933 ft | 445 kts | 155° |
| 2026-05-06 02:34 | 17.12145 | 116.85509 | 34934 ft | 442 kts | 155° |
| 2026-05-06 02:34 | 17.06661 | 116.88445 | 34939 ft | 443 kts | 155° |
| 2026-05-06 02:35 | 17.01160 | 116.91389 | 34943 ft | 444 kts | 155° |
| 2026-05-06 02:35 | 16.96583 | 116.93836 | 34939 ft | 445 kts | 155° |
| 2026-05-06 02:36 | 16.91072 | 116.96782 | 34939 ft | 445 kts | 155° |
| 2026-05-06 02:36 | 16.85552 | 116.99732 | 34936 ft | 445 kts | 155° |
| 2026-05-06 02:37 | 16.79153 | 117.03147 | 34932 ft | 444 kts | 155° |
| 2026-05-06 02:37 | 16.74581 | 117.05586 | 34937 ft | 443 kts | 155° |
| 2026-05-06 02:38 | 16.69093 | 117.08512 | 34933 ft | 442 kts | 155° |
| 2026-05-06 02:38 | 16.63620 | 117.11429 | 34932 ft | 441 kts | 155° |
| 2026-05-06 02:39 | 16.58163 | 117.14335 | 34934 ft | 440 kts | 155° |
| 2026-05-06 02:39 | 16.52704 | 117.17240 | 34937 ft | 441 kts | 154° |
| 2026-05-06 02:40 | 16.47110 | 117.19756 | 34929 ft | 436 kts | 169° |
| 2026-05-06 02:40 | 16.41162 | 117.20185 | 34933 ft | 430 kts | 189° |
| 2026-05-06 02:41 | 16.35217 | 117.19395 | 34936 ft | 432 kts | 190° |
| 2026-05-06 02:41 | 16.29263 | 117.18553 | 34928 ft | 431 kts | 190° |
| 2026-05-06 02:42 | 16.23321 | 117.17750 | 34931 ft | 430 kts | 189° |
| 2026-05-06 02:42 | 16.17388 | 117.16975 | 34932 ft | 430 kts | 189° |
| 2026-05-06 02:43 | 16.11440 | 117.16208 | 34935 ft | 431 kts | 189° |
| 2026-05-06 02:43 | 16.05517 | 117.15446 | 34936 ft | 432 kts | 189° |
| 2026-05-06 02:44 | 15.99541 | 117.14676 | 34935 ft | 433 kts | 189° |
| 2026-05-06 02:44 | 15.93559 | 117.13906 | 34931 ft | 433 kts | 189° |
| 2026-05-06 02:45 | 15.87573 | 117.13136 | 34930 ft | 433 kts | 189° |
| 2026-05-06 02:45 | 15.81598 | 117.12368 | 34929 ft | 432 kts | 189° |
| 2026-05-06 02:46 | 15.75640 | 117.11602 | 34930 ft | 431 kts | 189° |
| 2026-05-06 02:46 | 15.69737 | 117.10844 | 34930 ft | 430 kts | 189° |
| 2026-05-06 02:47 | 15.63796 | 117.10081 | 34934 ft | 430 kts | 189° |
| 2026-05-06 02:47 | 15.57840 | 117.09317 | 34934 ft | 432 kts | 189° |
| 2026-05-06 02:48 | 15.51875 | 117.08552 | 34932 ft | 432 kts | 189° |
| 2026-05-06 02:48 | 15.45900 | 117.07786 | 34931 ft | 433 kts | 189° |
| 2026-05-06 02:49 | 15.39919 | 117.07020 | 34929 ft | 433 kts | 189° |
| 2026-05-06 02:49 | 15.33937 | 117.06255 | 34929 ft | 433 kts | 189° |
| 2026-05-06 02:50 | 15.28003 | 117.05496 | 34924 ft | 432 kts | 189° |
| 2026-05-06 02:50 | 15.22042 | 117.04733 | 34925 ft | 432 kts | 189° |
| 2026-05-06 02:51 | 15.16079 | 117.03971 | 34920 ft | 431 kts | 189° |
| 2026-05-06 02:51 | 15.10118 | 117.03210 | 34926 ft | 432 kts | 189° |
| 2026-05-06 02:52 | 15.04151 | 117.02448 | 34929 ft | 433 kts | 189° |
| 2026-05-06 02:52 | 14.98164 | 117.01684 | 34927 ft | 434 kts | 189° |
| 2026-05-06 02:53 | 14.92174 | 117.00921 | 34929 ft | 434 kts | 189° |
| 2026-05-06 02:53 | 14.86178 | 117.00157 | 34923 ft | 434 kts | 189° |
| 2026-05-06 02:54 | 14.80223 | 116.99398 | 34923 ft | 434 kts | 189° |
| 2026-05-06 02:54 | 14.74237 | 116.98637 | 34924 ft | 433 kts | 189° |
| 2026-05-06 02:55 | 14.68255 | 116.97876 | 34921 ft | 432 kts | 189° |
| 2026-05-06 02:55 | 14.62286 | 116.97117 | 34924 ft | 432 kts | 189° |
| 2026-05-06 02:56 | 14.56322 | 116.96359 | 34926 ft | 431 kts | 189° |
| 2026-05-06 02:56 | 14.50355 | 116.95601 | 34925 ft | 432 kts | 189° |
| 2026-05-06 02:57 | 14.44385 | 116.94843 | 34923 ft | 433 kts | 189° |
| 2026-05-06 02:57 | 14.38399 | 116.94083 | 34925 ft | 433 kts | 189° |
| 2026-05-06 02:58 | 14.32410 | 116.93324 | 34920 ft | 433 kts | 189° |
| 2026-05-06 02:58 | 14.26426 | 116.92565 | 34923 ft | 433 kts | 189° |
| 2026-05-06 02:59 | 14.20441 | 116.91807 | 34921 ft | 433 kts | 189° |
| 2026-05-06 02:59 | 14.14508 | 116.91057 | 34919 ft | 432 kts | 189° |
| 2026-05-06 03:00 | 14.08551 | 116.90306 | 34922 ft | 431 kts | 189° |
| 2026-05-06 03:00 | 14.02596 | 116.89554 | 34923 ft | 430 kts | 189° |
| 2026-05-06 03:01 | 13.96666 | 116.88806 | 34922 ft | 430 kts | 189° |
| 2026-05-06 03:01 | 13.90722 | 116.88056 | 34922 ft | 431 kts | 189° |
| 2026-05-06 03:02 | 13.84764 | 116.87305 | 34922 ft | 432 kts | 189° |
| 2026-05-06 03:02 | 13.78798 | 116.86554 | 34921 ft | 432 kts | 189° |
| 2026-05-06 03:03 | 13.72824 | 116.85802 | 34922 ft | 432 kts | 189° |
| 2026-05-06 03:03 | 13.66852 | 116.85050 | 34920 ft | 432 kts | 189° |
| 2026-05-06 03:04 | 13.60929 | 116.84305 | 34914 ft | 431 kts | 189° |
| 2026-05-06 03:04 | 13.54986 | 116.83558 | 34920 ft | 430 kts | 189° |
| 2026-05-06 03:05 | 13.49054 | 116.82813 | 34913 ft | 429 kts | 189° |
| 2026-05-06 03:05 | 13.43144 | 116.82071 | 34923 ft | 428 kts | 189° |
| 2026-05-06 03:06 | 13.37222 | 116.81327 | 34919 ft | 429 kts | 189° |
| 2026-05-06 03:06 | 13.31282 | 116.80582 | 34921 ft | 430 kts | 188° |
| 2026-05-06 03:07 | 13.25327 | 116.79835 | 34925 ft | 431 kts | 188° |
| 2026-05-06 03:07 | 13.19417 | 116.79095 | 34917 ft | 431 kts | 188° |
| 2026-05-06 03:08 | 13.13467 | 116.78349 | 34915 ft | 430 kts | 188° |
| 2026-05-06 03:08 | 13.07525 | 116.77605 | 34920 ft | 429 kts | 188° |
| 2026-05-06 03:09 | 13.01610 | 116.76865 | 34917 ft | 428 kts | 188° |
| 2026-05-06 03:09 | 12.95697 | 116.76125 | 34912 ft | 427 kts | 188° |
| 2026-05-06 03:10 | 12.89805 | 116.75388 | 34926 ft | 427 kts | 188° |
| 2026-05-06 03:10 | 12.83895 | 116.74649 | 34912 ft | 428 kts | 188° |
| 2026-05-06 03:11 | 12.77979 | 116.73910 | 34908 ft | 429 kts | 188° |
| 2026-05-06 03:11 | 12.72089 | 116.73175 | 34914 ft | 429 kts | 188° |
| 2026-05-06 03:12 | 12.66155 | 116.72435 | 34908 ft | 429 kts | 188° |
| 2026-05-06 03:12 | 12.60228 | 116.71695 | 34917 ft | 428 kts | 188° |
| 2026-05-06 03:13 | 12.54317 | 116.70958 | 34906 ft | 428 kts | 188° |
| 2026-05-06 03:13 | 12.48408 | 116.70222 | 34904 ft | 427 kts | 188° |
| 2026-05-06 03:14 | 12.42512 | 116.69487 | 34908 ft | 426 kts | 188° |
| 2026-05-06 03:14 | 12.36628 | 116.68754 | 34917 ft | 426 kts | 188° |
| 2026-05-06 03:15 | 12.30736 | 116.68021 | 34916 ft | 428 kts | 188° |
| 2026-05-06 03:15 | 12.24821 | 116.67284 | 34915 ft | 429 kts | 188° |
| 2026-05-06 03:16 | 12.18892 | 116.66547 | 34918 ft | 430 kts | 188° |
| 2026-05-06 03:16 | 12.12990 | 116.65813 | 34901 ft | 430 kts | 188° |
| 2026-05-06 03:17 | 12.07060 | 116.65077 | 34898 ft | 429 kts | 188° |
| 2026-05-06 03:17 | 12.01137 | 116.64341 | 34898 ft | 428 kts | 188° |
| 2026-05-06 03:18 | 11.95230 | 116.63608 | 34894 ft | 427 kts | 188° |
| 2026-05-06 03:18 | 11.89348 | 116.62878 | 34906 ft | 426 kts | 188° |
| 2026-05-06 03:19 | 11.83455 | 116.62147 | 34916 ft | 427 kts | 188° |
| 2026-05-06 03:19 | 11.77530 | 116.61411 | 35090 ft | 434 kts | 188° |
| 2026-05-06 03:20 | 11.68304 | 116.60266 | 35274 ft | 459 kts | 188° |
| 2026-05-06 03:20 | 11.61848 | 116.59466 | 35408 ft | 474 kts | 188° |
| 2026-05-06 03:21 | 11.55201 | 116.58644 | 35524 ft | 488 kts | 188° |
| 2026-05-06 03:21 | 11.48393 | 116.57802 | 35769 ft | 495 kts | 188° |
| 2026-05-06 03:22 | 11.44971 | 116.57380 | 36031 ft | 495 kts | 188° |
| 2026-05-06 03:22 | 11.41556 | 116.56958 | 36355 ft | 494 kts | 188° |
| 2026-05-06 03:22 | 11.38145 | 116.56537 | 36677 ft | 492 kts | 188° |
| 2026-05-06 03:22 | 11.34745 | 116.56116 | 36841 ft | 494 kts | 188° |
| 2026-05-06 03:23 | 11.27908 | 116.55271 | 36891 ft | 494 kts | 188° |
| 2026-05-06 03:23 | 11.21139 | 116.54435 | 36900 ft | 491 kts | 188° |
| 2026-05-06 03:24 | 11.14364 | 116.53599 | 36902 ft | 489 kts | 188° |
| 2026-05-06 03:24 | 11.07609 | 116.52767 | 36899 ft | 489 kts | 188° |
| 2026-05-06 03:25 | 11.00859 | 116.51937 | 36904 ft | 489 kts | 188° |
| 2026-05-06 03:25 | 10.94095 | 116.51104 | 36906 ft | 490 kts | 188° |
| 2026-05-06 03:26 | 10.88459 | 116.50410 | 36900 ft | 491 kts | 188° |
| 2026-05-06 03:26 | 10.81650 | 116.49573 | 36905 ft | 493 kts | 188° |
| 2026-05-06 03:27 | 10.74826 | 116.48734 | 36903 ft | 494 kts | 188° |
| 2026-05-06 03:27 | 10.68045 | 116.47901 | 36904 ft | 494 kts | 188° |
| 2026-05-06 03:28 | 10.60053 | 116.46920 | 36905 ft | 495 kts | 188° |
| 2026-05-06 03:28 | 10.54368 | 116.46222 | 36902 ft | 495 kts | 187° |
| 2026-05-06 03:29 | 10.47534 | 116.45383 | 36898 ft | 494 kts | 187° |
| 2026-05-06 03:29 | 10.40700 | 116.44545 | 36904 ft | 494 kts | 187° |
| 2026-05-06 03:30 | 10.33921 | 116.43714 | 36907 ft | 494 kts | 187° |
| 2026-05-06 03:30 | 10.27103 | 116.42879 | 36902 ft | 493 kts | 187° |
| 2026-05-06 03:31 | 10.20286 | 116.42044 | 36891 ft | 493 kts | 187° |
| 2026-05-06 03:31 | 10.13479 | 116.41210 | 36905 ft | 493 kts | 187° |
| 2026-05-06 03:32 | 10.06669 | 116.40377 | 36901 ft | 493 kts | 187° |
| 2026-05-06 03:32 | 9.99853 | 116.39543 | 36893 ft | 493 kts | 187° |
| 2026-05-06 03:33 | 9.93083 | 116.38715 | 36896 ft | 493 kts | 187° |
| 2026-05-06 03:33 | 9.86284 | 116.37884 | 36894 ft | 492 kts | 187° |
| 2026-05-06 03:34 | 9.79482 | 116.37053 | 36896 ft | 492 kts | 187° |
| 2026-05-06 03:34 | 9.72694 | 116.36224 | 36891 ft | 491 kts | 187° |
| 2026-05-06 03:35 | 9.65903 | 116.35395 | 36903 ft | 491 kts | 187° |
| 2026-05-06 03:35 | 9.59118 | 116.34567 | 36905 ft | 492 kts | 187° |
| 2026-05-06 03:36 | 9.52316 | 116.33737 | 36890 ft | 493 kts | 187° |
| 2026-05-06 03:36 | 9.45530 | 116.32910 | 36888 ft | 494 kts | 187° |
| 2026-05-06 03:37 | 9.38700 | 116.32077 | 36903 ft | 495 kts | 187° |
| 2026-05-06 03:37 | 9.31860 | 116.31244 | 36900 ft | 496 kts | 187° |
| 2026-05-06 03:38 | 9.25012 | 116.30409 | 36891 ft | 496 kts | 187° |
| 2026-05-06 03:38 | 9.18154 | 116.29573 | 36889 ft | 496 kts | 187° |
| 2026-05-06 03:39 | 9.11298 | 116.28737 | 36898 ft | 496 kts | 187° |
| 2026-05-06 03:39 | 9.04439 | 116.27900 | 36882 ft | 496 kts | 187° |
| 2026-05-06 03:40 | 8.97579 | 116.27064 | 36883 ft | 496 kts | 187° |
| 2026-05-06 03:40 | 8.90726 | 116.26229 | 36902 ft | 496 kts | 187° |
| 2026-05-06 03:41 | 8.83911 | 116.25399 | 36890 ft | 496 kts | 187° |
| 2026-05-06 03:41 | 8.77044 | 116.24563 | 36889 ft | 496 kts | 187° |
| 2026-05-06 03:42 | 8.70181 | 116.23728 | 36902 ft | 496 kts | 187° |
| 2026-05-06 03:42 | 8.63316 | 116.22896 | 36901 ft | 496 kts | 186° |
| 2026-05-06 03:43 | 8.56472 | 116.22315 | 36892 ft | 497 kts | 184° |
| 2026-05-06 03:43 | 8.49568 | 116.21858 | 36890 ft | 497 kts | 184° |
| 2026-05-06 03:44 | 8.42679 | 116.21363 | 36889 ft | 497 kts | 184° |
| 2026-05-06 03:44 | 8.35777 | 116.20836 | 36897 ft | 497 kts | 184° |
| 2026-05-06 03:45 | 8.28887 | 116.20307 | 36889 ft | 496 kts | 184° |
| 2026-05-06 03:45 | 8.21997 | 116.19781 | 36881 ft | 496 kts | 184° |
| 2026-05-06 03:46 | 8.15111 | 116.19263 | 36898 ft | 496 kts | 184° |
| 2026-05-06 03:46 | 8.08217 | 116.18773 | 36888 ft | 496 kts | 183° |
| 2026-05-06 03:47 | 8.01378 | 116.18292 | 36883 ft | 496 kts | 184° |
| 2026-05-06 03:47 | 7.94494 | 116.17804 | 36890 ft | 496 kts | 184° |
| 2026-05-06 03:48 | 7.87617 | 116.17314 | 36884 ft | 495 kts | 184° |
| 2026-05-06 03:48 | 7.80725 | 116.16823 | 36881 ft | 495 kts | 184° |
| 2026-05-06 03:49 | 7.73850 | 116.16333 | 36886 ft | 496 kts | 184° |
| 2026-05-06 03:49 | 7.66969 | 116.15844 | 36889 ft | 496 kts | 184° |
| 2026-05-06 03:50 | 7.60117 | 116.15356 | 36889 ft | 496 kts | 184° |
| 2026-05-06 03:50 | 7.53228 | 116.14866 | 36889 ft | 497 kts | 184° |
| 2026-05-06 03:51 | 7.46328 | 116.14376 | 36890 ft | 497 kts | 184° |
| 2026-05-06 03:51 | 7.39428 | 116.13886 | 36886 ft | 497 kts | 184° |
| 2026-05-06 03:52 | 7.32534 | 116.13396 | 36883 ft | 497 kts | 184° |
| 2026-05-06 03:52 | 7.25641 | 116.12906 | 36878 ft | 496 kts | 184° |
| 2026-05-06 03:53 | 7.18745 | 116.12416 | 36888 ft | 496 kts | 184° |
| 2026-05-06 03:53 | 7.11871 | 116.11929 | 36885 ft | 495 kts | 183° |
| 2026-05-06 03:54 | 7.04999 | 116.11441 | 36877 ft | 495 kts | 183° |
| 2026-05-06 03:54 | 6.98137 | 116.10954 | 36872 ft | 494 kts | 183° |
| 2026-05-06 03:55 | 6.91279 | 116.10468 | 36876 ft | 493 kts | 183° |
| 2026-05-06 03:55 | 6.84480 | 116.09986 | 36872 ft | 493 kts | 183° |
| 2026-05-06 03:56 | 6.77643 | 116.09501 | 36875 ft | 492 kts | 183° |
| 2026-05-06 03:56 | 6.70810 | 116.09018 | 36874 ft | 492 kts | 183° |
| 2026-05-06 03:57 | 6.63983 | 116.08543 | 36877 ft | 492 kts | 183° |
| 2026-05-06 03:57 | 6.57161 | 116.08071 | 36872 ft | 491 kts | 183° |
| 2026-05-06 03:58 | 6.50339 | 116.07597 | 36864 ft | 491 kts | 183° |
| 2026-05-06 03:58 | 6.43516 | 116.07123 | 36871 ft | 491 kts | 183° |
| 2026-05-06 03:59 | 6.36691 | 116.06648 | 36870 ft | 491 kts | 183° |
| 2026-05-06 03:59 | 6.29863 | 116.06174 | 36877 ft | 492 kts | 183° |
| 2026-05-06 04:00 | 6.23408 | 116.05726 | 36868 ft | 492 kts | 183° |
| 2026-05-06 04:00 | 6.16585 | 116.05252 | 36865 ft | 492 kts | 183° |
| 2026-05-06 04:01 | 6.09800 | 116.04781 | 36866 ft | 492 kts | 183° |
| 2026-05-06 04:01 | 6.02969 | 116.04307 | 36860 ft | 492 kts | 183° |
| 2026-05-06 04:02 | 5.96145 | 116.03833 | 36844 ft | 492 kts | 183° |
| 2026-05-06 04:02 | 5.89323 | 116.03335 | 36854 ft | 492 kts | 185° |
| 2026-05-06 04:03 | 5.82537 | 116.02435 | 36872 ft | 491 kts | 187° |
| 2026-05-06 04:03 | 5.75764 | 116.01441 | 36854 ft | 492 kts | 187° |
| 2026-05-06 04:04 | 5.69034 | 116.00471 | 36846 ft | 492 kts | 187° |
| 2026-05-06 04:04 | 5.62257 | 115.99517 | 36850 ft | 491 kts | 187° |
| 2026-05-06 04:05 | 5.55488 | 115.98571 | 36848 ft | 491 kts | 187° |
| 2026-05-06 04:05 | 5.48722 | 115.97623 | 36854 ft | 491 kts | 187° |
| 2026-05-06 04:06 | 5.41958 | 115.96674 | 36849 ft | 490 kts | 187° |
| 2026-05-06 04:06 | 5.35209 | 115.95728 | 36854 ft | 489 kts | 187° |
| 2026-05-06 04:07 | 5.28469 | 115.94783 | 36857 ft | 489 kts | 187° |
| 2026-05-06 04:07 | 5.21725 | 115.93843 | 36852 ft | 489 kts | 186° |
| 2026-05-06 04:08 | 5.15019 | 115.92975 | 36860 ft | 489 kts | 186° |
| 2026-05-06 04:08 | 5.08262 | 115.92115 | 36863 ft | 489 kts | 186° |
| 2026-05-06 04:09 | 5.01507 | 115.91245 | 36868 ft | 489 kts | 186° |
| 2026-05-06 04:09 | 4.94759 | 115.90371 | 36875 ft | 489 kts | 186° |
| 2026-05-06 04:10 | 4.88013 | 115.89498 | 36883 ft | 489 kts | 186° |
| 2026-05-06 04:10 | 4.81274 | 115.88592 | 36878 ft | 489 kts | 187° |
| 2026-05-06 04:11 | 4.74577 | 115.87674 | 36902 ft | 489 kts | 187° |
| 2026-05-06 04:11 | 4.67841 | 115.86754 | 36894 ft | 488 kts | 187° |
| 2026-05-06 04:12 | 4.61105 | 115.85838 | 36903 ft | 488 kts | 186° |
| 2026-05-06 04:12 | 4.54368 | 115.84925 | 36911 ft | 488 kts | 187° |
| 2026-05-06 04:13 | 4.47645 | 115.84012 | 36933 ft | 487 kts | 187° |
| 2026-05-06 04:13 | 4.40922 | 115.83098 | 36918 ft | 487 kts | 187° |
| 2026-05-06 04:14 | 4.34202 | 115.82187 | 36921 ft | 487 kts | 187° |
| 2026-05-06 04:14 | 4.27482 | 115.81276 | 36924 ft | 487 kts | 187° |
| 2026-05-06 04:15 | 4.20752 | 115.80363 | 36926 ft | 488 kts | 187° |
| 2026-05-06 04:15 | 4.14029 | 115.79450 | 36923 ft | 487 kts | 187° |
| 2026-05-06 04:16 | 4.07307 | 115.78504 | 36921 ft | 488 kts | 188° |
| 2026-05-06 04:16 | 4.00619 | 115.77266 | 36928 ft | 489 kts | 190° |
| 2026-05-06 04:17 | 3.93940 | 115.75953 | 36925 ft | 489 kts | 190° |
| 2026-05-06 04:17 | 3.88456 | 115.74884 | 36916 ft | 489 kts | 190° |
| 2026-05-06 04:18 | 3.80671 | 115.73390 | 36924 ft | 490 kts | 189° |
| 2026-05-06 04:18 | 3.75062 | 115.72321 | 36920 ft | 490 kts | 189° |
| 2026-05-06 04:19 | 3.68357 | 115.71045 | 36925 ft | 490 kts | 189° |
| 2026-05-06 04:19 | 3.61655 | 115.69768 | 36919 ft | 490 kts | 189° |
| 2026-05-06 04:20 | 3.55002 | 115.68500 | 36925 ft | 490 kts | 189° |
| 2026-05-06 04:20 | 3.48298 | 115.67222 | 36918 ft | 490 kts | 189° |
| 2026-05-06 04:21 | 3.41604 | 115.65946 | 36918 ft | 489 kts | 189° |
| 2026-05-06 04:21 | 3.34916 | 115.64672 | 36914 ft | 489 kts | 189° |
| 2026-05-06 04:22 | 3.28240 | 115.63400 | 36920 ft | 488 kts | 189° |
| 2026-05-06 04:23 | 3.18236 | 115.61495 | 36911 ft | 488 kts | 189° |
| 2026-05-06 04:23 | 3.11611 | 115.60233 | 36928 ft | 487 kts | 189° |
| 2026-05-06 04:24 | 3.04945 | 115.58964 | 36911 ft | 487 kts | 189° |
| 2026-05-06 04:24 | 2.98275 | 115.57695 | 36916 ft | 487 kts | 189° |
| 2026-05-06 04:25 | 2.91617 | 115.56427 | 36914 ft | 488 kts | 189° |
| 2026-05-06 04:25 | 2.84942 | 115.55157 | 36910 ft | 488 kts | 189° |
| 2026-05-06 04:26 | 2.78271 | 115.53887 | 36917 ft | 488 kts | 189° |
| 2026-05-06 04:26 | 2.71595 | 115.52616 | 36907 ft | 488 kts | 189° |
| 2026-05-06 04:27 | 2.64915 | 115.51346 | 36911 ft | 488 kts | 189° |
| 2026-05-06 04:27 | 2.58285 | 115.50084 | 36911 ft | 488 kts | 189° |
| 2026-05-06 04:28 | 2.51610 | 115.48815 | 36921 ft | 488 kts | 189° |
| 2026-05-06 04:28 | 2.44933 | 115.47544 | 36898 ft | 488 kts | 189° |
| 2026-05-06 04:29 | 2.38259 | 115.46275 | 36911 ft | 488 kts | 189° |
| 2026-05-06 04:29 | 2.31578 | 115.45005 | 36912 ft | 488 kts | 189° |
| 2026-05-06 04:30 | 2.24887 | 115.43732 | 36908 ft | 489 kts | 189° |
| 2026-05-06 04:30 | 2.18240 | 115.42468 | 36908 ft | 489 kts | 189° |
| 2026-05-06 04:31 | 2.11549 | 115.41196 | 36902 ft | 489 kts | 189° |
| 2026-05-06 04:31 | 2.04863 | 115.39925 | 36914 ft | 489 kts | 189° |
| 2026-05-06 04:32 | 1.98172 | 115.38654 | 36905 ft | 489 kts | 189° |
| 2026-05-06 04:32 | 1.91479 | 115.37381 | 36915 ft | 489 kts | 189° |
| 2026-05-06 04:33 | 1.84804 | 115.36112 | 36910 ft | 489 kts | 189° |
| 2026-05-06 04:33 | 1.78114 | 115.34841 | 36917 ft | 489 kts | 189° |
| 2026-05-06 04:34 | 1.71459 | 115.33576 | 36911 ft | 490 kts | 189° |
| 2026-05-06 04:34 | 1.64766 | 115.32306 | 36906 ft | 490 kts | 189° |
| 2026-05-06 04:35 | 1.58065 | 115.31032 | 36906 ft | 490 kts | 189° |
| 2026-05-06 04:35 | 1.51370 | 115.29759 | 36916 ft | 490 kts | 189° |
| 2026-05-06 04:36 | 1.44662 | 115.28485 | 36906 ft | 490 kts | 189° |
| 2026-05-06 04:36 | 1.37961 | 115.27212 | 36906 ft | 490 kts | 189° |
| 2026-05-06 04:37 | 1.31310 | 115.25949 | 36907 ft | 490 kts | 189° |
| 2026-05-06 04:37 | 1.24604 | 115.24675 | 36903 ft | 490 kts | 189° |
| 2026-05-06 04:38 | 1.17908 | 115.23404 | 36902 ft | 490 kts | 189° |
| 2026-05-06 04:38 | 1.11209 | 115.22131 | 36896 ft | 490 kts | 189° |
| 2026-05-06 04:39 | 1.04507 | 115.20858 | 36899 ft | 490 kts | 189° |
| 2026-05-06 04:39 | 0.97800 | 115.19584 | 36897 ft | 490 kts | 189° |
| 2026-05-06 04:40 | 0.91098 | 115.18311 | 36895 ft | 490 kts | 189° |
| 2026-05-06 04:40 | 0.84397 | 115.17039 | 36892 ft | 490 kts | 189° |
| 2026-05-06 04:41 | 0.77800 | 115.15787 | 36902 ft | 490 kts | 189° |
| 2026-05-06 04:41 | 0.71095 | 115.14513 | 36891 ft | 490 kts | 189° |
| 2026-05-06 04:42 | 0.64392 | 115.13241 | 36893 ft | 491 kts | 189° |
| 2026-05-06 04:42 | 0.57673 | 115.11965 | 36891 ft | 491 kts | 189° |
| 2026-05-06 04:43 | 0.50963 | 115.10691 | 36886 ft | 491 kts | 189° |
| 2026-05-06 04:43 | 0.44248 | 115.09416 | 36893 ft | 491 kts | 189° |
| 2026-05-06 04:44 | 0.37535 | 115.08142 | 36880 ft | 491 kts | 189° |
| 2026-05-06 04:44 | 0.30819 | 115.06866 | 36885 ft | 491 kts | 189° |
| 2026-05-06 04:45 | 0.24112 | 115.05593 | 36879 ft | 491 kts | 189° |
| 2026-05-06 04:45 | 0.17446 | 115.04327 | 36884 ft | 491 kts | 189° |
| 2026-05-06 04:46 | 0.10730 | 115.03052 | 36875 ft | 491 kts | 189° |
| 2026-05-06 04:46 | 0.04021 | 115.01779 | 36879 ft | 491 kts | 189° |
| 2026-05-06 04:47 | -0.02686 | 115.00505 | 36879 ft | 491 kts | 189° |
| 2026-05-06 04:47 | -0.09400 | 114.99230 | 36882 ft | 491 kts | 189° |
| 2026-05-06 04:48 | -0.16116 | 114.97954 | 36873 ft | 491 kts | 189° |
| 2026-05-06 04:48 | -0.22843 | 114.96677 | 36879 ft | 491 kts | 189° |
| 2026-05-06 04:49 | -0.29513 | 114.95410 | 36876 ft | 491 kts | 189° |
| 2026-05-06 04:49 | -0.36224 | 114.94135 | 36868 ft | 491 kts | 189° |
| 2026-05-06 04:50 | -0.42940 | 114.92859 | 36871 ft | 491 kts | 189° |
| 2026-05-06 04:50 | -0.49655 | 114.91582 | 36875 ft | 491 kts | 189° |
| 2026-05-06 04:51 | -0.56378 | 114.90305 | 36865 ft | 491 kts | 189° |
| 2026-05-06 04:51 | -0.63097 | 114.89028 | 36865 ft | 491 kts | 189° |
| 2026-05-06 04:52 | -0.69776 | 114.87758 | 36869 ft | 491 kts | 189° |
| 2026-05-06 04:52 | -0.76495 | 114.86481 | 36860 ft | 491 kts | 189° |
| 2026-05-06 04:53 | -0.83224 | 114.85202 | 36859 ft | 491 kts | 189° |
| 2026-05-06 04:53 | -0.89940 | 114.83934 | 36855 ft | 491 kts | 188° |
| 2026-05-06 04:54 | -0.96730 | 114.83420 | 36861 ft | 489 kts | 177° |
| 2026-05-06 04:54 | -1.03490 | 114.83661 | 36858 ft | 489 kts | 176° |
| 2026-05-06 04:55 | -1.10278 | 114.83932 | 36865 ft | 489 kts | 176° |
| 2026-05-06 04:55 | -1.17078 | 114.84171 | 36856 ft | 489 kts | 176° |
| 2026-05-06 04:56 | -1.23877 | 114.84389 | 36865 ft | 489 kts | 176° |
| 2026-05-06 04:56 | -1.30681 | 114.84600 | 36857 ft | 489 kts | 176° |
| 2026-05-06 04:57 | -1.37484 | 114.84813 | 36858 ft | 490 kts | 176° |
| 2026-05-06 04:57 | -1.44362 | 114.85032 | 36863 ft | 499 kts | 176° |
| 2026-05-06 04:58 | -1.51312 | 114.85252 | 36874 ft | 505 kts | 176° |
| 2026-05-06 04:58 | -1.58363 | 114.85475 | 36863 ft | 508 kts | 176° |
| 2026-05-06 04:59 | -1.65431 | 114.85697 | 36857 ft | 509 kts | 176° |
| 2026-05-06 04:59 | -1.72500 | 114.85919 | 36849 ft | 508 kts | 176° |
| 2026-05-06 05:00 | -1.79559 | 114.86142 | 36848 ft | 507 kts | 176° |
| 2026-05-06 05:00 | -1.86595 | 114.86364 | 36843 ft | 505 kts | 176° |
| 2026-05-06 05:01 | -1.93610 | 114.86586 | 36844 ft | 504 kts | 176° |
| 2026-05-06 05:01 | -2.00629 | 114.86808 | 36852 ft | 503 kts | 176° |
| 2026-05-06 05:02 | -2.07632 | 114.87029 | 36841 ft | 503 kts | 176° |
| 2026-05-06 05:02 | -2.14582 | 114.87249 | 36848 ft | 503 kts | 176° |
| 2026-05-06 05:03 | -2.21627 | 114.87472 | 36841 ft | 503 kts | 176° |
| 2026-05-06 05:03 | -2.28588 | 114.87691 | 36842 ft | 504 kts | 176° |
| 2026-05-06 05:04 | -2.35609 | 114.87914 | 36840 ft | 505 kts | 176° |
| 2026-05-06 05:04 | -2.42631 | 114.88136 | 36834 ft | 505 kts | 176° |
| 2026-05-06 05:05 | -2.49656 | 114.88358 | 36835 ft | 505 kts | 176° |
| 2026-05-06 05:05 | -2.56689 | 114.88580 | 36838 ft | 505 kts | 176° |
| 2026-05-06 05:06 | -2.63718 | 114.88802 | 36830 ft | 505 kts | 176° |
| 2026-05-06 05:06 | -2.70700 | 114.89023 | 36839 ft | 504 kts | 176° |
| 2026-05-06 05:07 | -2.77710 | 114.89245 | 36826 ft | 504 kts | 176° |
| 2026-05-06 05:07 | -2.83598 | 114.89431 | 36824 ft | 504 kts | 176° |
| 2026-05-06 05:08 | -2.90562 | 114.89652 | 36836 ft | 504 kts | 176° |
| 2026-05-06 05:08 | -2.97570 | 114.89873 | 36821 ft | 504 kts | 176° |
| 2026-05-06 05:09 | -3.04585 | 114.90095 | 36826 ft | 504 kts | 176° |
| 2026-05-06 05:09 | -3.11586 | 114.90317 | 36824 ft | 503 kts | 176° |
| 2026-05-06 05:10 | -3.18585 | 114.90538 | 36827 ft | 503 kts | 176° |
| 2026-05-06 05:10 | -3.25585 | 114.90760 | 36823 ft | 503 kts | 176° |
| 2026-05-06 05:11 | -3.32585 | 114.90982 | 36838 ft | 503 kts | 176° |
| 2026-05-06 05:11 | -3.39603 | 114.91204 | 36826 ft | 503 kts | 176° |
| 2026-05-06 05:12 | -3.46561 | 114.91425 | 36844 ft | 504 kts | 177° |
| 2026-05-06 05:12 | -3.53573 | 114.91647 | 36828 ft | 504 kts | 177° |
| 2026-05-06 05:13 | -3.60586 | 114.91868 | 36830 ft | 504 kts | 177° |
| 2026-05-06 05:13 | -3.67599 | 114.92091 | 36834 ft | 504 kts | 177° |
| 2026-05-06 05:14 | -3.74627 | 114.92313 | 36836 ft | 505 kts | 177° |
| 2026-05-06 05:14 | -3.81657 | 114.92536 | 36844 ft | 505 kts | 177° |
| 2026-05-06 05:15 | -3.88646 | 114.92758 | 36843 ft | 506 kts | 177° |
| 2026-05-06 05:15 | -3.95728 | 114.92982 | 36850 ft | 506 kts | 177° |
| 2026-05-06 05:16 | -4.02718 | 114.93204 | 36845 ft | 507 kts | 177° |
| 2026-05-06 05:16 | -4.09772 | 114.93428 | 36847 ft | 507 kts | 177° |
| 2026-05-06 05:17 | -4.16840 | 114.93652 | 36846 ft | 507 kts | 177° |
| 2026-05-06 05:17 | -4.23894 | 114.93876 | 36853 ft | 507 kts | 177° |
| 2026-05-06 05:18 | -4.30950 | 114.94100 | 36852 ft | 508 kts | 177° |
| 2026-05-06 05:18 | -4.38010 | 114.94364 | 36847 ft | 508 kts | 176° |
| 2026-05-06 05:19 | -4.45067 | 114.94769 | 36845 ft | 508 kts | 175° |
| 2026-05-06 05:19 | -4.52135 | 114.95199 | 36848 ft | 508 kts | 175° |
| 2026-05-06 05:20 | -4.59146 | 114.95607 | 36843 ft | 508 kts | 175° |
| 2026-05-06 05:20 | -4.66203 | 114.96004 | 36835 ft | 503 kts | 175° |
| 2026-05-06 05:21 | -4.73082 | 114.96388 | 36838 ft | 498 kts | 176° |
| 2026-05-06 05:21 | -4.79984 | 114.96774 | 36838 ft | 494 kts | 176° |
| 2026-05-06 05:22 | -4.86809 | 114.97158 | 36835 ft | 489 kts | 176° |
| 2026-05-06 05:22 | -4.93597 | 114.97539 | 36839 ft | 487 kts | 176° |
| 2026-05-06 05:23 | -5.00353 | 114.97919 | 36846 ft | 487 kts | 176° |
| 2026-05-06 05:23 | -5.10479 | 114.98488 | 36843 ft | 489 kts | 176° |
| 2026-05-06 05:24 | -5.17282 | 114.98871 | 36851 ft | 490 kts | 176° |
| 2026-05-06 05:24 | -5.24120 | 114.99256 | 36844 ft | 492 kts | 176° |
| 2026-05-06 05:25 | -5.30965 | 114.99641 | 36841 ft | 493 kts | 176° |
| 2026-05-06 05:25 | -5.37816 | 115.00026 | 36843 ft | 493 kts | 176° |
| 2026-05-06 05:26 | -5.44676 | 115.00412 | 36839 ft | 493 kts | 176° |
| 2026-05-06 05:26 | -5.51499 | 115.00796 | 36846 ft | 493 kts | 176° |
| 2026-05-06 05:27 | -5.58338 | 115.01181 | 36841 ft | 492 kts | 176° |
| 2026-05-06 05:27 | -5.65164 | 115.01565 | 36847 ft | 491 kts | 176° |
| 2026-05-06 05:28 | -5.71975 | 115.01948 | 36846 ft | 490 kts | 176° |
| 2026-05-06 05:28 | -5.78762 | 115.02332 | 36834 ft | 486 kts | 176° |
| 2026-05-06 05:29 | -5.85479 | 115.02711 | 36835 ft | 480 kts | 177° |
| 2026-05-06 05:29 | -5.92124 | 115.03085 | 36838 ft | 477 kts | 177° |
| 2026-05-06 05:30 | -5.98740 | 115.03458 | 36839 ft | 475 kts | 177° |
| 2026-05-06 05:30 | -6.05353 | 115.03831 | 36846 ft | 476 kts | 177° |
| 2026-05-06 05:31 | -6.11958 | 115.04204 | 36841 ft | 473 kts | 177° |
| 2026-05-06 05:31 | -6.18494 | 115.04572 | 36855 ft | 476 kts | 177° |
| 2026-05-06 05:32 | -6.21807 | 115.04759 | 36612 ft | 479 kts | 177° |
| 2026-05-06 05:32 | -6.25175 | 115.04948 | 35883 ft | 487 kts | 177° |
| 2026-05-06 05:32 | -6.28567 | 115.05140 | 35090 ft | 488 kts | 177° |
| 2026-05-06 05:32 | -6.31962 | 115.05332 | 34269 ft | 490 kts | 177° |
| 2026-05-06 05:33 | -6.35382 | 115.05525 | 33328 ft | 493 kts | 177° |
| 2026-05-06 05:33 | -6.38813 | 115.05719 | 32368 ft | 495 kts | 177° |
| 2026-05-06 05:33 | -6.42272 | 115.05914 | 31391 ft | 497 kts | 177° |
| 2026-05-06 05:33 | -6.45735 | 115.06110 | 30446 ft | 499 kts | 177° |
| 2026-05-06 05:34 | -6.49188 | 115.06305 | 29722 ft | 495 kts | 178° |
| 2026-05-06 05:34 | -6.52609 | 115.06499 | 28943 ft | 491 kts | 178° |
| 2026-05-06 05:34 | -6.56006 | 115.06691 | 28234 ft | 487 kts | 177° |
| 2026-05-06 05:34 | -6.59338 | 115.06880 | 27558 ft | 482 kts | 178° |
| 2026-05-06 05:35 | -6.62675 | 115.07068 | 26892 ft | 479 kts | 177° |
| 2026-05-06 05:35 | -6.65986 | 115.07255 | 26248 ft | 475 kts | 177° |
| 2026-05-06 05:35 | -6.69276 | 115.07441 | 25589 ft | 472 kts | 177° |
| 2026-05-06 05:35 | -6.72542 | 115.07625 | 24941 ft | 470 kts | 177° |
| 2026-05-06 05:36 | -6.75805 | 115.07810 | 24299 ft | 468 kts | 177° |
| 2026-05-06 05:36 | -6.79043 | 115.07993 | 23660 ft | 466 kts | 177° |
| 2026-05-06 05:36 | -6.82286 | 115.08176 | 22936 ft | 465 kts | 177° |
| 2026-05-06 05:36 | -6.85472 | 115.08378 | 22688 ft | 452 kts | 176° |
| 2026-05-06 05:37 | -6.88571 | 115.08606 | 22479 ft | 441 kts | 176° |
| 2026-05-06 05:37 | -6.91638 | 115.08844 | 22308 ft | 443 kts | 176° |
| 2026-05-06 05:37 | -6.94742 | 115.09085 | 22136 ft | 449 kts | 176° |
| 2026-05-06 05:37 | -6.97829 | 115.09323 | 21963 ft | 451 kts | 176° |
| 2026-05-06 05:38 | -7.00946 | 115.09559 | 21765 ft | 448 kts | 176° |
| 2026-05-06 05:38 | -7.04051 | 115.09793 | 21586 ft | 446 kts | 176° |
| 2026-05-06 05:38 | -7.07132 | 115.10024 | 21401 ft | 443 kts | 176° |
| 2026-05-06 05:38 | -7.10204 | 115.10253 | 21226 ft | 441 kts | 176° |
| 2026-05-06 05:39 | -7.13260 | 115.10481 | 21050 ft | 439 kts | 176° |
| 2026-05-06 05:39 | -7.16302 | 115.10708 | 20876 ft | 438 kts | 176° |
| 2026-05-06 05:39 | -7.19346 | 115.10935 | 20699 ft | 437 kts | 176° |
| 2026-05-06 05:39 | -7.22385 | 115.11161 | 20524 ft | 436 kts | 176° |
| 2026-05-06 05:40 | -7.25402 | 115.11387 | 20360 ft | 435 kts | 176° |
| 2026-05-06 05:40 | -7.28425 | 115.11613 | 20174 ft | 434 kts | 176° |
| 2026-05-06 05:40 | -7.31433 | 115.11838 | 20000 ft | 433 kts | 176° |
| 2026-05-06 05:40 | -7.34406 | 115.12060 | 19824 ft | 433 kts | 176° |
| 2026-05-06 05:41 | -7.37398 | 115.12283 | 19663 ft | 432 kts | 176° |
| 2026-05-06 05:41 | -7.40401 | 115.12508 | 19486 ft | 431 kts | 176° |
| 2026-05-06 05:41 | -7.43387 | 115.12731 | 19314 ft | 430 kts | 176° |
| 2026-05-06 05:41 | -7.46375 | 115.12954 | 19132 ft | 429 kts | 176° |
| 2026-05-06 05:42 | -7.49347 | 115.13176 | 18968 ft | 428 kts | 176° |
| 2026-05-06 05:42 | -7.52316 | 115.13398 | 18795 ft | 427 kts | 176° |
| 2026-05-06 05:42 | -7.55274 | 115.13620 | 18624 ft | 426 kts | 176° |
| 2026-05-06 05:42 | -7.58228 | 115.13841 | 18457 ft | 425 kts | 176° |
| 2026-05-06 05:43 | -7.61171 | 115.14061 | 18278 ft | 423 kts | 176° |
| 2026-05-06 05:43 | -7.64100 | 115.14280 | 18104 ft | 422 kts | 176° |
| 2026-05-06 05:43 | -7.67030 | 115.14499 | 17907 ft | 421 kts | 176° |
| 2026-05-06 05:43 | -7.69941 | 115.14717 | 17729 ft | 419 kts | 176° |
| 2026-05-06 05:44 | -7.72843 | 115.14934 | 17547 ft | 417 kts | 176° |
| 2026-05-06 05:44 | -7.75737 | 115.15150 | 17379 ft | 415 kts | 176° |
| 2026-05-06 05:44 | -7.78578 | 115.15363 | 17211 ft | 414 kts | 176° |
| 2026-05-06 05:44 | -7.81439 | 115.15577 | 17050 ft | 412 kts | 176° |
| 2026-05-06 05:45 | -7.84286 | 115.15734 | 16862 ft | 405 kts | 183° |
| 2026-05-06 05:45 | -7.87016 | 115.15144 | 16708 ft | 402 kts | 203° |
| 2026-05-06 05:45 | -7.89414 | 115.13714 | 16568 ft | 402 kts | 218° |
| 2026-05-06 05:45 | -7.91358 | 115.11701 | 16405 ft | 401 kts | 233° |
| 2026-05-06 05:46 | -7.92957 | 115.09378 | 16257 ft | 404 kts | 236° |
| 2026-05-06 05:46 | -7.94518 | 115.07015 | 16094 ft | 406 kts | 236° |
| 2026-05-06 05:46 | -7.96086 | 115.04642 | 15927 ft | 405 kts | 236° |
| 2026-05-06 05:46 | -7.97661 | 115.02286 | 15763 ft | 404 kts | 235° |
| 2026-05-06 05:47 | -7.99241 | 114.99949 | 15597 ft | 403 kts | 235° |
| 2026-05-06 05:47 | -8.00826 | 114.97622 | 15435 ft | 402 kts | 235° |
| 2026-05-06 05:47 | -8.02413 | 114.95301 | 15274 ft | 401 kts | 234° |
| 2026-05-06 05:47 | -8.03995 | 114.92987 | 15114 ft | 400 kts | 234° |
| 2026-05-06 05:48 | -8.05572 | 114.90682 | 14953 ft | 399 kts | 234° |
| 2026-05-06 05:48 | -8.07144 | 114.88381 | 14764 ft | 399 kts | 234° |
| 2026-05-06 05:48 | -8.08699 | 114.86103 | 14528 ft | 400 kts | 234° |
| 2026-05-06 05:48 | -8.10271 | 114.83796 | 14289 ft | 400 kts | 234° |
| 2026-05-06 05:49 | -8.11840 | 114.81493 | 14056 ft | 396 kts | 234° |
| 2026-05-06 05:49 | -8.13392 | 114.79215 | 13797 ft | 391 kts | 234° |
| 2026-05-06 05:49 | -8.14932 | 114.76956 | 13516 ft | 388 kts | 234° |
| 2026-05-06 05:49 | -8.16461 | 114.74713 | 13253 ft | 388 kts | 234° |
| 2026-05-06 05:50 | -8.17987 | 114.72472 | 13020 ft | 388 kts | 234° |
| 2026-05-06 05:50 | -8.19515 | 114.70227 | 12761 ft | 388 kts | 234° |
| 2026-05-06 05:50 | -8.21038 | 114.67989 | 12521 ft | 386 kts | 234° |
| 2026-05-06 05:50 | -8.22564 | 114.65767 | 12271 ft | 380 kts | 231° |
| 2026-05-06 05:51 | -8.24412 | 114.63963 | 12038 ft | 365 kts | 211° |
| 2026-05-06 05:51 | -8.26699 | 114.62992 | 11788 ft | 352 kts | 191° |
| 2026-05-06 05:51 | -8.29112 | 114.62768 | 11478 ft | 347 kts | 177° |
| 2026-05-06 05:51 | -8.31469 | 114.63109 | 11124 ft | 340 kts | 161° |
| 2026-05-06 05:52 | -8.33640 | 114.63994 | 10741 ft | 335 kts | 155° |
| 2026-05-06 05:52 | -8.35755 | 114.64956 | 10383 ft | 332 kts | 154° |
| 2026-05-06 05:52 | -8.37853 | 114.65913 | 10033 ft | 329 kts | 154° |
| 2026-05-06 05:52 | -8.39932 | 114.66843 | 9784 ft | 321 kts | 154° |
| 2026-05-06 05:53 | -8.41949 | 114.67730 | 9600 ft | 312 kts | 154° |
| 2026-05-06 05:53 | -8.43910 | 114.68584 | 9494 ft | 301 kts | 154° |
| 2026-05-06 05:53 | -8.45776 | 114.69395 | 9393 ft | 291 kts | 154° |
| 2026-05-06 05:53 | -8.47612 | 114.70196 | 9059 ft | 289 kts | 154° |
| 2026-05-06 05:54 | -8.49499 | 114.71022 | 8438 ft | 298 kts | 154° |
| 2026-05-06 05:54 | -8.51388 | 114.71848 | 8197 ft | 291 kts | 154° |
| 2026-05-06 05:54 | -8.53207 | 114.72641 | 7904 ft | 279 kts | 154° |
| 2026-05-06 05:54 | -8.54979 | 114.73428 | 7428 ft | 275 kts | 150° |
| 2026-05-06 05:55 | -8.56530 | 114.74492 | 7101 ft | 263 kts | 138° |
| 2026-05-06 05:55 | -8.57891 | 114.75680 | 6791 ft | 255 kts | 136° |
| 2026-05-06 05:55 | -8.59211 | 114.76871 | 6499 ft | 257 kts | 135° |
| 2026-05-06 05:55 | -8.60574 | 114.78097 | 6225 ft | 267 kts | 136° |
| 2026-05-06 05:56 | -8.61974 | 114.79344 | 5919 ft | 269 kts | 136° |
| 2026-05-06 05:56 | -8.62908 | 114.80169 | 5712 ft | 269 kts | 136° |
| 2026-05-06 05:56 | -8.64799 | 114.81822 | 5281 ft | 268 kts | 137° |
| 2026-05-06 05:56 | -8.66207 | 114.83050 | 4975 ft | 266 kts | 137° |
| 2026-05-06 05:57 | -8.67604 | 114.84267 | 4690 ft | 264 kts | 137° |
| 2026-05-06 05:57 | -8.68526 | 114.85069 | 4479 ft | 263 kts | 137° |
| 2026-05-06 05:57 | -8.69915 | 114.86272 | 4176 ft | 263 kts | 137° |
| 2026-05-06 05:57 | -8.71297 | 114.87468 | 3870 ft | 261 kts | 137° |
| 2026-05-06 05:58 | -8.72676 | 114.88664 | 3593 ft | 260 kts | 137° |
| 2026-05-06 05:58 | -8.74043 | 114.89850 | 3291 ft | 258 kts | 136° |
| 2026-05-06 05:58 | -8.75117 | 114.91231 | 3017 ft | 247 kts | 112° |
| 2026-05-06 05:58 | -8.75506 | 114.92851 | 2910 ft | 237 kts | 95° |
| 2026-05-06 05:59 | -8.75546 | 114.94485 | 2806 ft | 229 kts | 91° |
| 2026-05-06 05:59 | -8.75537 | 114.96065 | 2673 ft | 219 kts | 91° |
| 2026-05-06 05:59 | -8.75533 | 114.97557 | 2593 ft | 206 kts | 92° |
| 2026-05-06 05:59 | -8.75533 | 114.98969 | 2487 ft | 195 kts | 92° |
| 2026-05-06 06:00 | -8.75500 | 115.00305 | 2346 ft | 185 kts | 90° |
| 2026-05-06 06:00 | -8.75443 | 115.01597 | 2270 ft | 182 kts | 89° |
| 2026-05-06 06:00 | -8.75389 | 115.02844 | 2104 ft | 174 kts | 89° |
| 2026-05-06 06:00 | -8.75339 | 115.04004 | 1991 ft | 155 kts | 91° |
| 2026-05-06 06:01 | -8.75296 | 115.05048 | 1865 ft | 143 kts | 92° |
| 2026-05-06 06:01 | -8.75257 | 115.06019 | 1759 ft | 137 kts | 90° |
| 2026-05-06 06:01 | -8.75219 | 115.07006 | 1610 ft | 143 kts | 91° |
| 2026-05-06 06:01 | -8.75180 | 115.08011 | 1413 ft | 142 kts | 91° |
| 2026-05-06 06:02 | -8.75142 | 115.08999 | 1230 ft | 140 kts | 90° |
| 2026-05-06 06:02 | -8.75103 | 115.09994 | 1057 ft | 142 kts | 91° |
| 2026-05-06 06:02 | -8.75065 | 115.11005 | 876 ft | 144 kts | 91° |
| 2026-05-06 06:02 | -8.75028 | 115.11969 | 681 ft | 133 kts | 88° |
| 2026-05-06 06:03 | -8.74992 | 115.12887 | 621 ft | 134 kts | 87° |
| 2026-05-06 06:03 | -8.74929 | 115.13889 | 401 ft | 146 kts | 90° |
| 2026-05-06 06:03 | -8.74910 | 115.14880 | 166 ft | 138 kts | 85° |
| 2026-05-06 06:03 | -8.74879 | 115.15838 | 41 ft | 129 kts | 84° |
| 2026-05-06 06:04 | -8.74843 | 115.16620 | 29 ft | 89 kts | 87° |
| 2026-05-06 06:04 | -8.74825 | 115.17061 | 29 ft | 36 kts | 89° |
| 2026-05-06 06:04 | -8.74820 | 115.17241 | 26 ft | 6 kts | 87° |
| 2026-05-06 06:04 | -8.74814 | 115.17285 | 28 ft | 6 kts | 75° |
| 2026-05-06 06:05 | -8.74783 | 115.17311 | 29 ft | 6 kts | 13° |
| 2026-05-06 06:05 | -8.74738 | 115.17312 | 30 ft | 6 kts | 0° |
| 2026-05-06 06:05 | -8.74693 | 115.17309 | 27 ft | 6 kts | 353° |
| 2026-05-06 06:05 | -8.74658 | 115.17284 | 30 ft | 6 kts | 303° |
| 2026-05-06 06:06 | -8.74649 | 115.17235 | 25 ft | 9 kts | 270° |
| 2026-05-06 06:06 | -8.74652 | 115.17157 | 28 ft | 13 kts | 268° |
| 2026-05-06 06:06 | -8.74655 | 115.17068 | 28 ft | 3 kts | 268° |
| 2026-05-06 06:06 | -8.74655 | 115.17067 | 28 ft | 0 kts | 268° |
| 2026-05-06 06:07 | -8.74656 | 115.17053 | 25 ft | 11 kts | 265° |
| 2026-05-06 06:07 | -8.74666 | 115.16917 | 29 ft | 21 kts | 270° |
| 2026-05-06 06:07 | -8.74667 | 115.16813 | 29 ft | 10 kts | 269° |
| 2026-05-06 06:08 | -8.74669 | 115.16742 | 30 ft | 6 kts | 267° |
| 2026-05-06 06:08 | -8.74669 | 115.16740 | 30 ft | 0 kts | 267° |
| 2026-05-06 06:11 | -8.74669 | 115.16734 | 30 ft | 4 kts | 267° |
| 2026-05-06 06:11 | -8.74664 | 115.16691 | 29 ft | 7 kts | 297° |
| 2026-05-06 06:11 | -8.74623 | 115.16671 | 28 ft | 7 kts | 351° |
| 2026-05-06 06:12 | -8.74576 | 115.16669 | 30 ft | 4 kts | 358° |
| 2026-05-06 06:12 | -8.74557 | 115.16668 | 28 ft | 0 kts | 358° |